sensor_id;sensor_type;location;lat;lon;timestamp;P1;durP1;ratioP1;P2;durP2;ratioP2
64467;SDS011;50853;46.836;16.820;2022-11-18T04:38:48;11.10;;;7.30;;
64467;SDS011;50853;46.836;16.820;2022-11-18T04:41:14;10.02;;;7.05;;
64467;SDS011;50853;46.836;16.820;2022-11-18T04:43:40;13.07;;;8.07;;
64467;SDS011;50853;46.836;16.820;2022-11-18T04:46:06;14.25;;;8.18;;
64467;SDS011;50853;46.836;16.820;2022-11-18T04:48:32;13.32;;;7.30;;
64467;SDS011;50853;46.836;16.820;2022-11-18T04:51:02;11.27;;;7.32;;
64467;SDS011;50853;46.836;16.820;2022-11-18T04:53:28;13.07;;;7.28;;
64467;SDS011;50853;46.836;16.820;2022-11-18T04:55:55;8.37;;;6.40;;
64467;SDS011;50853;46.836;16.820;2022-11-18T04:58:20;10.48;;;6.70;;
64467;SDS011;50853;46.836;16.820;2022-11-18T05:00:49;8.07;;;6.00;;
64467;SDS011;50853;46.836;16.820;2022-11-18T05:03:15;7.57;;;5.47;;
64467;SDS011;50853;46.836;16.820;2022-11-18T05:05:41;9.68;;;5.72;;
64467;SDS011;50853;46.836;16.820;2022-11-18T05:08:06;6.97;;;5.35;;
64467;SDS011;50853;46.836;16.820;2022-11-18T05:10:32;7.68;;;5.35;;
64467;SDS011;50853;46.836;16.820;2022-11-18T05:12:58;8.77;;;5.25;;
64467;SDS011;50853;46.836;16.820;2022-11-18T05:15:23;6.57;;;4.78;;
64467;SDS011;50853;46.836;16.820;2022-11-18T05:17:49;10.50;;;5.35;;
64467;SDS011;50853;46.836;16.820;2022-11-18T05:20:15;9.57;;;5.03;;
64467;SDS011;50853;46.836;16.820;2022-11-18T05:22:41;14.68;;;4.90;;
64467;SDS011;50853;46.836;16.820;2022-11-18T05:25:07;7.70;;;4.68;;
64467;SDS011;50853;46.836;16.820;2022-11-18T05:27:33;15.02;;;5.13;;
64467;SDS011;50853;46.836;16.820;2022-11-18T05:29:59;7.53;;;4.80;;
64467;SDS011;50853;46.836;16.820;2022-11-18T05:32:25;6.90;;;4.72;;
64467;SDS011;50853;46.836;16.820;2022-11-18T05:34:51;6.85;;;4.22;;
64467;SDS011;50853;46.836;16.820;2022-11-18T05:37:16;7.30;;;4.70;;
64467;SDS011;50853;46.836;16.820;2022-11-18T05:39:42;8.93;;;4.60;;
64467;SDS011;50853;46.836;16.820;2022-11-18T05:42:08;6.07;;;4.00;;
64467;SDS011;50853;46.836;16.820;2022-11-18T05:44:53;7.63;;;4.20;;
64467;SDS011;50853;46.836;16.820;2022-11-18T05:47:19;5.50;;;4.07;;
64467;SDS011;50853;46.836;16.820;2022-11-18T05:49:44;4.80;;;4.03;;
64467;SDS011;50853;46.836;16.820;2022-11-18T05:52:10;7.40;;;3.35;;
64467;SDS011;50853;46.836;16.820;2022-11-18T05:54:43;5.03;;;3.50;;
64467;SDS011;50853;46.836;16.820;2022-11-18T05:57:13;9.18;;;3.70;;
64467;SDS011;50853;46.836;16.820;2022-11-18T05:59:39;5.88;;;3.63;;
64467;SDS011;50853;46.836;16.820;2022-11-18T06:04:33;12.38;;;3.60;;
64467;SDS011;50853;46.836;16.820;2022-11-18T06:07:04;18.25;;;4.40;;
64467;SDS011;50853;46.836;16.820;2022-11-18T14:57:16;14.23;;;3.70;;
64467;SDS011;50853;46.836;16.820;2022-11-18T14:59:43;16.67;;;4.10;;
64467;SDS011;50853;46.836;16.820;2022-11-18T15:02:15;10.52;;;4.20;;
64467;SDS011;50853;46.836;16.820;2022-11-18T15:04:42;9.70;;;3.70;;
64467;SDS011;50853;46.836;16.820;2022-11-18T15:07:08;21.50;;;3.90;;
64467;SDS011;50853;46.836;16.820;2022-11-18T15:09:38;23.92;;;4.18;;
64467;SDS011;50853;46.836;16.820;2022-11-18T15:12:04;10.60;;;4.10;;
64467;SDS011;50853;46.836;16.820;2022-11-18T15:14:30;15.45;;;3.55;;
64467;SDS011;50853;46.836;16.820;2022-11-18T15:16:56;12.43;;;3.92;;
64467;SDS011;50853;46.836;16.820;2022-11-18T15:19:22;14.75;;;4.60;;
64467;SDS011;50853;46.836;16.820;2022-11-18T15:21:47;8.52;;;3.53;;
64467;SDS011;50853;46.836;16.820;2022-11-18T15:24:13;10.77;;;3.53;;
64467;SDS011;50853;46.836;16.820;2022-11-18T15:26:40;8.90;;;3.28;;
64467;SDS011;50853;46.836;16.820;2022-11-18T15:29:29;14.20;;;3.72;;
64467;SDS011;50853;46.836;16.820;2022-11-18T15:31:54;10.95;;;4.18;;
64467;SDS011;50853;46.836;16.820;2022-11-18T15:34:20;9.65;;;3.33;;
64467;SDS011;50853;46.836;16.820;2022-11-18T15:36:45;7.28;;;3.15;;
64467;SDS011;50853;46.836;16.820;2022-11-18T15:39:11;11.10;;;3.30;;
64467;SDS011;50853;46.836;16.820;2022-11-18T15:41:38;10.57;;;3.47;;
64467;SDS011;50853;46.836;16.820;2022-11-18T15:44:05;10.40;;;3.40;;
64467;SDS011;50853;46.836;16.820;2022-11-18T15:46:31;11.00;;;3.28;;
64467;SDS011;50853;46.836;16.820;2022-11-18T15:48:58;11.70;;;3.10;;
64467;SDS011;50853;46.836;16.820;2022-11-18T15:51:24;7.78;;;3.40;;
64467;SDS011;50853;46.836;16.820;2022-11-18T15:53:51;8.45;;;3.50;;
64467;SDS011;50853;46.836;16.820;2022-11-18T15:58:43;15.07;;;3.40;;
64467;SDS011;50853;46.836;16.820;2022-11-18T16:01:09;9.80;;;3.47;;
64467;SDS011;50853;46.836;16.820;2022-11-18T16:03:35;8.63;;;3.03;;
64467;SDS011;50853;46.836;16.820;2022-11-18T16:06:02;13.83;;;8.07;;
64467;SDS011;50853;46.836;16.820;2022-11-18T16:08:28;20.05;;;10.20;;
64467;SDS011;50853;46.836;16.820;2022-11-18T16:10:55;13.60;;;8.68;;
64467;SDS011;50853;46.836;16.820;2022-11-18T16:13:39;18.35;;;9.82;;
64467;SDS011;50853;46.836;16.820;2022-11-18T16:16:05;17.30;;;9.82;;
64467;SDS011;50853;46.836;16.820;2022-11-18T16:18:31;18.90;;;9.67;;
64467;SDS011;50853;46.836;16.820;2022-11-18T16:20:57;18.57;;;9.63;;
64467;SDS011;50853;46.836;16.820;2022-11-18T16:23:24;13.23;;;8.57;;
64467;SDS011;50853;46.836;16.820;2022-11-18T16:25:52;17.00;;;8.57;;
64467;SDS011;50853;46.836;16.820;2022-11-18T16:28:18;16.73;;;8.93;;
64467;SDS011;50853;46.836;16.820;2022-11-18T16:30:47;13.45;;;7.90;;
64467;SDS011;50853;46.836;16.820;2022-11-18T16:33:32;12.45;;;8.38;;
64467;SDS011;50853;46.836;16.820;2022-11-18T16:35:57;12.95;;;8.23;;
64467;SDS011;50853;46.836;16.820;2022-11-18T16:38:23;14.17;;;8.23;;
64467;SDS011;50853;46.836;16.820;2022-11-18T16:40:56;18.80;;;7.90;;
64467;SDS011;50853;46.836;16.820;2022-11-18T16:43:23;14.95;;;7.97;;
64467;SDS011;50853;46.836;16.820;2022-11-18T16:45:49;13.73;;;7.20;;
64467;SDS011;50853;46.836;16.820;2022-11-18T16:48:17;11.27;;;7.13;;
64467;SDS011;50853;46.836;16.820;2022-11-18T16:50:43;12.10;;;7.97;;
64467;SDS011;50853;46.836;16.820;2022-11-18T16:53:08;14.03;;;8.10;;
64467;SDS011;50853;46.836;16.820;2022-11-18T16:55:34;12.83;;;7.67;;
64467;SDS011;50853;46.836;16.820;2022-11-18T16:58:00;15.43;;;8.10;;
64467;SDS011;50853;46.836;16.820;2022-11-18T17:00:26;14.40;;;8.43;;
64467;SDS011;50853;46.836;16.820;2022-11-18T17:02:52;11.43;;;7.53;;
64467;SDS011;50853;46.836;16.820;2022-11-18T17:05:17;14.50;;;7.93;;
64467;SDS011;50853;46.836;16.820;2022-11-18T17:07:43;21.15;;;9.95;;
64467;SDS011;50853;46.836;16.820;2022-11-18T17:10:09;19.43;;;12.00;;
64467;SDS011;50853;46.836;16.820;2022-11-18T17:12:46;27.75;;;12.40;;
64467;SDS011;50853;46.836;16.820;2022-11-18T17:15:13;30.92;;;12.60;;
64467;SDS011;50853;46.836;16.820;2022-11-18T17:17:39;22.58;;;12.07;;
64467;SDS011;50853;46.836;16.820;2022-11-18T17:20:05;23.97;;;12.50;;
64467;SDS011;50853;46.836;16.820;2022-11-18T17:22:31;20.77;;;11.50;;
64467;SDS011;50853;46.836;16.820;2022-11-18T17:24:56;25.17;;;13.27;;
64467;SDS011;50853;46.836;16.820;2022-11-18T17:27:23;22.23;;;11.35;;
64467;SDS011;50853;46.836;16.820;2022-11-18T17:29:48;21.15;;;11.40;;
64467;SDS011;50853;46.836;16.820;2022-11-18T17:32:15;21.97;;;11.13;;
64467;SDS011;50853;46.836;16.820;2022-11-18T17:37:07;27.53;;;11.70;;
64467;SDS011;50853;46.836;16.820;2022-11-18T17:39:33;20.35;;;10.68;;
64467;SDS011;50853;46.836;16.820;2022-11-18T17:41:59;22.87;;;10.83;;
64467;SDS011;50853;46.836;16.820;2022-11-18T17:44:37;19.35;;;10.65;;
64467;SDS011;50853;46.836;16.820;2022-11-18T17:47:03;19.50;;;10.27;;
64467;SDS011;50853;46.836;16.820;2022-11-18T17:49:29;21.80;;;11.27;;
64467;SDS011;50853;46.836;16.820;2022-11-18T17:51:55;18.13;;;8.90;;
64467;SDS011;50853;46.836;16.820;2022-11-18T17:54:21;19.03;;;9.00;;
64467;SDS011;50853;46.836;16.820;2022-11-18T17:56:46;12.63;;;8.20;;
64467;SDS011;50853;46.836;16.820;2022-11-18T17:59:13;12.13;;;7.57;;
64467;SDS011;50853;46.836;16.820;2022-11-18T18:01:41;14.23;;;6.38;;
64467;SDS011;50853;46.836;16.820;2022-11-18T18:04:08;11.32;;;7.32;;
64467;SDS011;50853;46.836;16.820;2022-11-18T18:06:34;10.00;;;6.07;;
64467;SDS011;50853;46.836;16.820;2022-11-18T18:09:00;9.45;;;5.95;;
64467;SDS011;50853;46.836;16.820;2022-11-18T18:11:27;9.40;;;6.22;;
64467;SDS011;50853;46.836;16.820;2022-11-18T18:13:53;8.63;;;5.65;;
64467;SDS011;50853;46.836;16.820;2022-11-18T18:16:40;7.05;;;5.45;;
64467;SDS011;50853;46.836;16.820;2022-11-18T18:19:11;7.88;;;4.90;;
64467;SDS011;50853;46.836;16.820;2022-11-18T18:21:41;9.30;;;5.82;;
64467;SDS011;50853;46.836;16.820;2022-11-18T18:24:07;6.55;;;5.15;;
64467;SDS011;50853;46.836;16.820;2022-11-18T18:26:34;7.30;;;4.97;;
64467;SDS011;50853;46.836;16.820;2022-11-18T18:29:01;7.63;;;4.97;;
64467;SDS011;50853;46.836;16.820;2022-11-18T18:31:27;7.68;;;5.10;;
64467;SDS011;50853;46.836;16.820;2022-11-18T18:33:56;6.45;;;4.88;;
64467;SDS011;50853;46.836;16.820;2022-11-18T18:36:22;8.35;;;5.32;;
64467;SDS011;50853;46.836;16.820;2022-11-18T18:38:49;5.75;;;4.80;;
64467;SDS011;50853;46.836;16.820;2022-11-18T18:43:43;6.97;;;5.07;;
64467;SDS011;50853;46.836;16.820;2022-11-18T18:46:13;6.90;;;4.40;;
64467;SDS011;50853;46.836;16.820;2022-11-18T18:48:56;5.43;;;4.40;;
64467;SDS011;50853;46.836;16.820;2022-11-18T18:51:28;6.30;;;4.40;;
64467;SDS011;50853;46.836;16.820;2022-11-18T18:54:15;6.82;;;4.93;;
64467;SDS011;50853;46.836;16.820;2022-11-18T18:56:42;6.38;;;5.25;;
64467;SDS011;50853;46.836;16.820;2022-11-18T18:59:08;7.90;;;4.82;;
64467;SDS011;50853;46.836;16.820;2022-11-18T19:01:35;7.97;;;5.73;;
64467;SDS011;50853;46.836;16.820;2022-11-18T19:04:02;7.13;;;5.40;;
64467;SDS011;50853;46.836;16.820;2022-11-18T19:09:00;8.68;;;5.97;;
64467;SDS011;50853;46.836;16.820;2022-11-18T19:11:27;11.25;;;6.45;;
64467;SDS011;50853;46.836;16.820;2022-11-18T19:14:12;8.30;;;6.38;;
64467;SDS011;50853;46.836;16.820;2022-11-18T19:16:39;9.13;;;6.32;;
64467;SDS011;50853;46.836;16.820;2022-11-18T19:19:06;9.18;;;6.82;;
64467;SDS011;50853;46.836;16.820;2022-11-18T19:21:33;9.63;;;6.85;;
64467;SDS011;50853;46.836;16.820;2022-11-18T19:24:00;9.50;;;7.30;;
64467;SDS011;50853;46.836;16.820;2022-11-18T19:26:26;10.38;;;7.80;;
64467;SDS011;50853;46.836;16.820;2022-11-18T19:28:52;9.55;;;7.15;;
64467;SDS011;50853;46.836;16.820;2022-11-18T19:31:18;11.40;;;6.97;;
64467;SDS011;50853;46.836;16.820;2022-11-18T19:33:45;8.68;;;7.05;;
64467;SDS011;50853;46.836;16.820;2022-11-18T19:36:11;10.35;;;7.53;;
64467;SDS011;50853;46.836;16.820;2022-11-18T19:38:37;10.95;;;7.40;;
64467;SDS011;50853;46.836;16.820;2022-11-18T19:41:04;10.93;;;8.00;;
64467;SDS011;50853;46.836;16.820;2022-11-18T19:43:31;13.27;;;7.55;;
64467;SDS011;50853;46.836;16.820;2022-11-18T19:45:57;10.77;;;7.13;;
64467;SDS011;50853;46.836;16.820;2022-11-18T19:48:23;10.25;;;7.70;;
64467;SDS011;50853;46.836;16.820;2022-11-18T19:50:49;10.98;;;7.50;;
64467;SDS011;50853;46.836;16.820;2022-11-18T19:53:16;11.93;;;8.07;;
64467;SDS011;50853;46.836;16.820;2022-11-18T19:55:57;9.93;;;7.25;;
64467;SDS011;50853;46.836;16.820;2022-11-18T19:58:24;13.32;;;7.15;;
64467;SDS011;50853;46.836;16.820;2022-11-18T20:00:51;9.85;;;7.22;;
64467;SDS011;50853;46.836;16.820;2022-11-18T20:03:16;13.98;;;7.57;;
64467;SDS011;50853;46.836;16.820;2022-11-18T20:05:42;10.45;;;6.45;;
64467;SDS011;50853;46.836;16.820;2022-11-18T20:08:22;9.40;;;6.90;;
64467;SDS011;50853;46.836;16.820;2022-11-18T20:10:49;9.13;;;6.03;;
64467;SDS011;50853;46.836;16.820;2022-11-18T20:13:16;10.48;;;6.78;;
64467;SDS011;50853;46.836;16.820;2022-11-18T20:15:42;14.93;;;6.88;;
64467;SDS011;50853;46.836;16.820;2022-11-18T20:18:09;12.23;;;5.85;;
64467;SDS011;50853;46.836;16.820;2022-11-18T20:20:35;11.33;;;5.67;;
